createdAt,value
2019-02-24T00:03:00.942Z,103388.04
2019-02-24T00:08:03.881Z,103388.93
2019-02-24T00:13:06.648Z,103388.05
2019-02-24T00:18:20.057Z,103378.13
2019-02-24T00:23:31.147Z,103369.41
2019-02-24T00:28:36.115Z,103378.27
2019-02-24T00:33:38.863Z,103374.45
2019-02-24T00:38:42.282Z,103367.55
2019-02-24T00:43:46.112Z,103365.77
2019-02-24T00:48:49.168Z,103368.38
2019-02-24T00:53:51.976Z,103374.42
2019-02-24T00:58:54.720Z,103380.33
2019-02-24T01:03:57.502Z,103365.23
2019-02-24T01:09:00.241Z,103365.44
2019-02-24T01:14:02.972Z,103361.33
2019-02-24T01:19:05.896Z,103361.91
2019-02-24T01:24:12.902Z,103365.92
2019-02-24T01:29:15.754Z,103373.44
2019-02-24T01:34:18.454Z,103382.37
2019-02-24T01:39:24.631Z,103373.13
2019-02-24T01:44:27.458Z,103376.03
2019-02-24T01:49:30.435Z,103372.66
2019-02-24T01:54:33.206Z,103370.44
2019-02-24T01:59:35.889Z,103368.98
2019-02-24T02:04:40.282Z,103363.00
2019-02-24T02:09:43.296Z,103369.48
2019-02-24T02:14:45.981Z,103353.67
2019-02-24T02:19:48.764Z,103357.30
2019-02-24T02:24:55.694Z,103359.89
2019-02-24T02:29:58.541Z,103354.41
2019-02-24T02:35:01.276Z,103349.53
2019-02-24T02:40:04.508Z,103351.33
2019-02-24T02:45:07.243Z,103344.76
2019-02-24T02:50:09.940Z,103352.63
2019-02-24T02:55:12.749Z,103362.16
2019-02-24T03:05:40.385Z,103382.43
2019-02-24T03:10:43.117Z,103373.81
2019-02-24T03:15:45.808Z,103363.20
2019-02-24T03:20:48.517Z,103374.50
2019-02-24T03:25:51.204Z,103375.80
2019-02-24T03:30:53.953Z,103351.25
2019-02-24T03:35:56.652Z,103351.44
2019-02-24T03:40:59.346Z,103344.72
2019-02-24T03:46:02.043Z,103360.96
2019-02-24T03:51:04.739Z,103383.45
2019-02-24T03:56:07.469Z,103400.98
2019-02-24T04:01:10.176Z,103406.03
2019-02-24T04:06:13.127Z,103399.75
2019-02-24T04:11:16.068Z,103389.63
2019-02-24T04:16:19.003Z,103380.91
2019-02-24T04:21:22.107Z,103372.11
2019-02-24T04:26:25.094Z,103368.98
2019-02-24T04:31:27.821Z,103360.92
2019-02-24T04:36:30.601Z,103353.33
2019-02-24T04:41:33.375Z,103338.20
2019-02-24T04:46:36.110Z,103342.67
2019-02-24T04:51:38.891Z,103350.77
2019-02-24T04:56:41.629Z,103342.89
2019-02-24T05:01:44.346Z,103353.38
2019-02-24T05:06:47.078Z,103355.13
2019-02-24T05:11:49.849Z,103365.87
2019-02-24T05:16:52.587Z,103364.63
2019-02-24T05:21:55.493Z,103351.16
2019-02-24T05:26:58.376Z,103349.56
2019-02-24T05:32:01.474Z,103358.44
2019-02-24T05:37:04.209Z,103362.22
2019-02-24T05:42:12.054Z,103371.67
2019-02-24T05:47:14.963Z,103370.78
2019-02-24T05:52:17.731Z,103381.64
2019-02-24T05:57:20.587Z,103379.28
2019-02-24T06:02:23.275Z,103374.66
2019-02-24T06:07:26.454Z,103368.87
2019-02-24T06:12:29.369Z,103376.81
2019-02-24T06:17:32.160Z,103376.30
2019-02-24T06:22:34.982Z,103393.51
2019-02-24T06:27:37.766Z,103391.98
2019-02-24T06:32:40.912Z,103402.44
2019-02-24T06:37:43.918Z,103402.01
2019-02-24T06:42:46.743Z,103399.75
2019-02-24T06:47:49.519Z,103403.61
2019-02-24T06:52:52.278Z,103409.35
2019-02-24T06:57:55.153Z,103419.53
2019-02-24T07:02:57.927Z,103403.92
2019-02-24T07:08:00.665Z,103398.28
2019-02-24T07:13:03.379Z,103392.14
2019-02-24T07:18:06.214Z,103381.16
2019-02-24T07:23:08.968Z,103392.19
2019-02-24T07:28:11.848Z,103389.95
2019-02-24T07:33:14.754Z,103380.89
2019-02-24T07:38:17.571Z,103410.28
2019-02-24T07:43:20.343Z,103406.08
2019-02-24T07:48:23.085Z,103421.12
2019-02-24T07:53:39.119Z,103413.37
2019-02-24T07:58:42.097Z,103424.75
2019-02-24T08:03:49.686Z,103414.83
2019-02-24T08:08:59.714Z,103417.91
2019-02-24T08:14:46.238Z,103415.56
2019-02-24T08:19:56.491Z,103422.61
2019-02-24T08:25:07.232Z,103450.19
2019-02-24T08:30:24.227Z,103448.70
2019-02-24T08:35:31.096Z,103445.88
2019-02-24T08:40:34.840Z,103435.09
2019-02-24T08:45:38.449Z,103436.50
2019-02-24T08:50:52.021Z,103437.87
2019-02-24T08:55:56.709Z,103439.29
2019-02-24T09:00:59.888Z,103442.81
2019-02-24T09:06:02.748Z,103441.63
2019-02-24T09:11:06.008Z,103453.84
2019-02-24T09:16:10.673Z,103462.98
2019-02-24T09:21:14.028Z,103441.86
2019-02-24T09:26:17.663Z,103431.62
2019-02-24T09:31:20.366Z,103421.59
2019-02-24T09:36:23.406Z,103429.87
2019-02-24T09:41:26.265Z,103422.82
2019-02-24T09:46:28.994Z,103421.88
2019-02-24T09:51:31.733Z,103434.36
2019-02-24T09:56:34.555Z,103431.59
2019-02-24T10:01:37.458Z,103427.96
2019-02-24T10:06:40.229Z,103425.17
2019-02-24T10:11:43.039Z,103431.91
2019-02-24T10:16:45.978Z,103431.67
2019-02-24T10:21:48.705Z,103442.28
2019-02-24T10:26:52.479Z,103435.83
2019-02-24T10:31:55.227Z,103434.66
2019-02-24T10:36:57.949Z,103440.03
2019-02-24T10:42:00.851Z,103452.80
2019-02-24T10:47:03.656Z,103443.36
2019-02-24T10:52:07.054Z,103446.08
2019-02-24T10:57:13.036Z,103433.11
2019-02-24T11:02:16.782Z,103438.03
2019-02-24T11:07:20.566Z,103427.14
2019-02-24T11:12:23.390Z,103420.30
2019-02-24T11:17:26.254Z,103421.27
2019-02-24T11:22:38.361Z,103418.29
2019-02-24T11:27:43.597Z,103406.09
2019-02-24T11:32:46.704Z,103420.21
2019-02-24T11:37:49.618Z,103403.58
2019-02-24T11:42:55.547Z,103403.59
2019-02-24T11:47:58.306Z,103398.33
2019-02-24T11:53:00.999Z,103404.91
2019-02-24T11:58:24.830Z,103406.21
2019-02-24T12:03:29.131Z,103417.17
2019-02-24T12:08:36.381Z,103410.14
2019-02-24T12:13:50.892Z,103423.27
2019-02-24T12:19:10.795Z,103419.77
2019-02-24T12:24:18.272Z,103419.27
2019-02-24T12:29:48.458Z,103431.92
2019-02-24T12:34:56.945Z,103432.39
2019-02-24T12:39:59.744Z,103424.86
2019-02-24T12:45:02.564Z,103423.47
2019-02-24T12:50:06.622Z,103414.68
2019-02-24T12:55:10.722Z,103403.30
2019-02-24T13:00:16.562Z,103384.00
2019-02-24T13:05:19.464Z,103379.23
2019-02-24T13:10:22.161Z,103364.25
2019-02-24T13:15:25.088Z,103370.20
2019-02-24T13:20:27.850Z,103371.93
2019-02-24T13:25:30.600Z,103365.78
2019-02-24T13:30:33.453Z,103373.12
2019-02-24T13:35:47.711Z,103383.12
2019-02-24T13:40:59.192Z,103369.84
2019-02-24T13:46:02.571Z,103353.14
2019-02-24T13:51:09.888Z,103353.05
2019-02-24T13:56:16.844Z,103360.62
2019-02-24T14:01:31.672Z,103360.03
2019-02-24T14:07:00.079Z,103364.66
2019-02-24T14:12:18.098Z,103359.75
2019-02-24T14:17:48.803Z,103351.53
2019-02-24T14:23:02.778Z,103363.83
2019-02-24T14:28:23.732Z,103339.23
2019-02-24T14:33:39.265Z,103335.63
2019-02-24T14:38:53.229Z,103340.52
2019-02-24T14:44:11.094Z,103335.27
2019-02-24T14:49:26.875Z,103342.79
2019-02-24T14:54:32.019Z,103349.84
2019-02-24T14:59:46.251Z,103364.80
2019-02-24T15:04:49.352Z,103366.59
2019-02-24T15:09:56.385Z,103363.93
2019-02-24T15:14:59.237Z,103356.02
2019-02-24T15:20:02.223Z,103355.19
2019-02-24T15:25:07.763Z,103369.56
2019-02-24T15:30:16.779Z,103360.20
2019-02-24T15:35:19.687Z,103360.98
2019-02-24T15:40:30.441Z,103372.74
2019-02-24T15:45:33.593Z,103376.20
2019-02-24T15:50:40.744Z,103381.92
2019-02-24T15:55:43.634Z,103365.70
2019-02-24T16:00:46.350Z,103360.50
2019-02-24T16:05:49.305Z,103357.11
2019-02-24T16:10:54.057Z,103357.65
2019-02-24T16:16:00.709Z,103353.30
2019-02-24T16:21:06.369Z,103349.92
2019-02-24T16:26:15.370Z,103358.17
2019-02-24T16:31:20.124Z,103351.17
2019-02-24T16:36:28.480Z,103359.14
2019-02-24T16:41:39.364Z,103368.05
2019-02-24T16:46:56.163Z,103361.55
2019-02-24T16:52:02.239Z,103364.34
2019-02-24T16:57:07.383Z,103361.01
2019-02-24T17:02:09.600Z,103368.49
2019-02-24T17:07:12.312Z,103367.23
2019-02-24T17:12:15.222Z,103362.42
2019-02-24T17:17:17.934Z,103365.03
2019-02-24T17:22:20.947Z,103364.91
2019-02-24T17:27:23.665Z,103367.95
2019-02-24T17:32:26.358Z,103367.86
2019-02-24T17:37:29.042Z,103372.20
2019-02-24T17:42:31.755Z,103383.94
2019-02-24T17:47:34.437Z,103376.84
2019-02-24T17:52:37.181Z,103377.16
2019-02-24T17:57:39.899Z,103377.89
2019-02-24T18:02:42.596Z,103385.09
2019-02-24T18:07:45.302Z,103393.63
2019-02-24T18:12:48.151Z,103390.89
2019-02-24T18:17:51.054Z,103392.55
2019-02-24T18:22:53.809Z,103387.19
2019-02-24T18:27:56.757Z,103388.88
2019-02-24T18:32:59.575Z,103383.13
2019-02-24T18:38:02.318Z,103381.66
2019-02-24T18:43:05.057Z,103375.32
2019-02-24T18:48:07.765Z,103374.73
2019-02-24T18:53:10.453Z,103369.03
2019-02-24T18:58:27.250Z,103364.16
2019-02-24T19:03:30.112Z,103366.62
2019-02-24T19:08:32.790Z,103379.45
2019-02-24T19:13:35.477Z,103381.55
2019-02-24T19:18:38.423Z,103378.36
2019-02-24T19:23:41.104Z,103383.78
2019-02-24T19:28:43.945Z,103388.70
2019-02-24T19:33:46.923Z,103386.34
2019-02-24T19:38:49.914Z,103387.91
2019-02-24T19:44:07.933Z,103389.08
2019-02-24T19:50:04.125Z,103397.08
2019-02-24T19:55:07.825Z,103389.73
2019-02-24T20:00:17.932Z,103387.06
2019-02-24T20:05:22.054Z,103386.95
2019-02-24T20:10:25.405Z,103393.56
2019-02-24T20:15:28.296Z,103391.69
2019-02-24T20:20:33.952Z,103392.33
2019-02-24T20:25:36.760Z,103378.51
2019-02-24T20:30:46.048Z,103387.38
2019-02-24T20:35:48.710Z,103401.27
2019-02-24T20:40:51.400Z,103391.45
2019-02-24T20:45:54.092Z,103399.91
2019-02-24T20:50:56.828Z,103412.31
2019-02-24T20:55:59.536Z,103425.12
2019-02-24T21:01:02.256Z,103434.01
2019-02-24T21:06:05.032Z,103440.94
2019-02-24T21:11:07.878Z,103440.39
2019-02-24T21:16:10.584Z,103459.60
2019-02-24T21:21:13.293Z,103464.63
2019-02-24T21:26:15.992Z,103468.45
2019-02-24T21:31:18.682Z,103462.34
2019-02-24T21:36:21.377Z,103465.09
2019-02-24T21:41:24.053Z,103471.70
2019-02-24T21:46:26.743Z,103469.00
2019-02-24T21:51:29.434Z,103468.90
2019-02-24T21:56:32.106Z,103472.48
2019-02-24T22:01:34.901Z,103473.65
2019-02-24T22:06:37.603Z,103476.02
2019-02-24T22:11:40.278Z,103469.71
2019-02-24T22:16:42.961Z,103469.51
2019-02-24T22:21:45.652Z,103469.78
2019-02-24T22:26:48.380Z,103454.96
2019-02-24T22:31:51.104Z,103474.11
2019-02-24T22:36:53.806Z,103469.80
2019-02-24T22:41:56.575Z,103460.36
2019-02-24T22:46:59.459Z,103477.80
2019-02-24T22:52:02.141Z,103480.06
2019-02-24T22:57:04.835Z,103480.36
2019-02-24T23:02:07.641Z,103472.77
2019-02-24T23:07:10.347Z,103464.91
2019-02-24T23:12:13.042Z,103462.80
2019-02-24T23:17:15.745Z,103456.59
2019-02-24T23:22:18.437Z,103455.27
2019-02-24T23:27:21.115Z,103448.50
2019-02-24T23:32:23.842Z,103443.37
2019-02-24T23:37:26.542Z,103452.88
2019-02-24T23:42:29.234Z,103433.63
2019-02-24T23:47:31.907Z,103433.11
2019-02-24T23:52:34.599Z,103445.09
2019-02-24T23:57:37.300Z,103434.73
